Time;durP1;ratioP1;P1;durP2;ratioP2;P2;SDS_P1;SDS_P2;PMS_P1;PMS_P2;Temp;Humidity;BMP_temperature;BMP_pressure;BME280_temperature;BME280_humidity;BME280_pressure;Samples;Min_cycle;Max_cycle;Signal;HPM_P1;HPM_P2
2021/08/25 00:02:09;;;;;;;13.38;7.60;;;;;;;;;;5097150;28;20102;-83
2021/08/25 00:04:39;;;;;;;12.45;7.65;;;;;;;;;;5099013;28;20184;-83
2021/08/25 00:07:08;;;;;;;15.27;7.85;;;;;;;;;;5096994;28;20318;-83
2021/08/25 00:09:39;;;;;;;14.60;8.00;;;;;;;;;;5098375;28;20099;-83
2021/08/25 00:12:06;;;;;;;12.55;7.63;;;;;;;;;;5130134;27;20040;-82
2021/08/25 00:14:34;;;;;;;13.88;7.85;;;;;;;;;;5096958;28;20048;-83
2021/08/25 00:17:01;;;;;;;15.55;8.75;;;;;;;;;;5098113;28;20075;-84
2021/08/25 00:19:27;;;;;;;15.52;8.85;;;;;;;;;;5131180;27;20059;-82
2021/08/25 00:21:54;;;;;;;17.98;8.55;;;;;;;;;;5129565;27;20075;-83
2021/08/25 00:24:21;;;;;;;14.00;8.65;;;;;;;;;;5128825;27;20170;-83
2021/08/25 00:26:51;;;;;;;16.35;8.30;;;;;;;;;;5128889;27;20071;-83
2021/08/25 00:29:18;;;;;;;13.23;7.53;;;;;;;;;;5095248;28;20507;-83
2021/08/25 00:31:46;;;;;;;13.75;8.23;;;;;;;;;;5097195;28;20052;-82
2021/08/25 00:34:12;;;;;;;17.98;9.45;;;;;;;;;;5105682;28;20125;-83
2021/08/25 00:36:38;;;;;;;14.73;8.57;;;;;;;;;;5106990;28;20319;-83
2021/08/25 00:39:05;;;;;;;16.92;9.98;;;;;;;;;;5133102;27;20082;-83
2021/08/25 00:41:31;;;;;;;12.70;8.50;;;;;;;;;;5096248;28;20426;-83
2021/08/25 00:43:58;;;;;;;20.83;11.25;;;;;;;;;;5128096;27;20113;-83
2021/08/25 00:46:26;;;;;;;16.80;11.32;;;;;;;;;;5095505;28;20055;-83
2021/08/25 00:48:53;;;;;;;17.55;11.68;;;;;;;;;;5096586;28;20205;-83
2021/08/25 00:51:21;;;;;;;20.58;10.93;;;;;;;;;;5095812;28;20067;-83
2021/08/25 00:53:48;;;;;;;19.63;9.88;;;;;;;;;;5095508;28;20064;-83
2021/08/25 00:56:15;;;;;;;16.23;10.98;;;;;;;;;;5096239;28;20074;-83
2021/08/25 00:58:44;;;;;;;15.77;11.32;;;;;;;;;;5096843;28;20040;-83
2021/08/25 01:01:24;;;;;;;20.38;11.68;;;;;;;;;;5101485;28;20101;-83
2021/08/25 01:03:54;;;;;;;19.88;10.82;;;;;;;;;;5133981;27;20136;-83
2021/08/25 01:06:21;;;;;;;20.95;12.13;;;;;;;;;;5104082;28;20031;-82
2021/08/25 01:08:48;;;;;;;22.50;12.82;;;;;;;;;;5117526;28;20109;-83
2021/08/25 01:11:18;;;;;;;22.10;14.02;;;;;;;;;;5150269;27;20140;-83
2021/08/25 01:13:44;;;;;;;23.80;14.82;;;;;;;;;;5109641;28;20462;-83
2021/08/25 01:16:11;;;;;;;24.27;14.93;;;;;;;;;;5101325;28;20075;-83
2021/08/25 01:18:42;;;;;;;24.52;16.13;;;;;;;;;;5100880;28;20048;-83
2021/08/25 01:21:09;;;;;;;25.83;14.60;;;;;;;;;;5100489;28;20052;-82
2021/08/25 01:23:44;;;;;;;23.58;14.70;;;;;;;;;;5110806;28;20032;-84
2021/08/25 01:26:11;;;;;;;25.63;17.50;;;;;;;;;;5117129;28;20117;-83
2021/08/25 01:28:46;;;;;;;31.38;17.50;;;;;;;;;;5105740;28;20085;-83
2021/08/25 01:31:13;;;;;;;27.52;17.45;;;;;;;;;;5101766;28;20055;-82
2021/08/25 01:33:40;;;;;;;27.35;17.63;;;;;;;;;;5103925;28;20143;-82
2021/08/25 01:36:15;;;;;;;30.23;19.23;;;;;;;;;;5116596;28;20043;-83
2021/08/25 01:38:49;;;;;;;25.65;19.25;;;;;;;;;;5115798;28;20047;-83
2021/08/25 01:41:27;;;;;;;30.35;20.48;;;;;;;;;;5105192;28;20224;-83
2021/08/25 01:43:54;;;;;;;34.13;22.30;;;;;;;;;;5101309;28;20064;-82
2021/08/25 01:46:25;;;;;;;37.38;25.25;;;;;;;;;;5101138;28;20088;-83
2021/08/25 01:48:58;;;;;;;41.28;26.67;;;;;;;;;;5101703;28;20048;-83
2021/08/25 01:51:26;;;;;;;33.40;24.23;;;;;;;;;;5099062;28;20481;-83
2021/08/25 01:53:52;;;;;;;44.20;27.27;;;;;;;;;;5100602;28;20352;-82
2021/08/25 01:56:22;;;;;;;36.15;24.52;;;;;;;;;;5100586;28;20059;-83
2021/08/25 01:58:49;;;;;;;40.90;26.80;;;;;;;;;;5133948;27;20064;-83
2021/08/25 02:01:16;;;;;;;42.90;27.67;;;;;;;;;;5099326;28;20059;-83
2021/08/25 02:03:46;;;;;;;38.20;26.92;;;;;;;;;;5099715;28;20443;-82
2021/08/25 02:06:15;;;;;;;37.58;25.27;;;;;;;;;;5099861;28;20478;-82
2021/08/25 02:08:41;;;;;;;37.60;25.65;;;;;;;;;;5100262;28;20136;-82
2021/08/25 02:11:11;;;;;;;41.85;28.77;;;;;;;;;;5132576;27;20155;-82
2021/08/25 02:13:38;;;;;;;35.92;25.42;;;;;;;;;;5097977;28;20051;-83
2021/08/25 02:16:04;;;;;;;42.88;26.55;;;;;;;;;;5132504;27;20058;-82
2021/08/25 02:18:31;;;;;;;35.30;25.75;;;;;;;;;;5100713;28;20056;-83
2021/08/25 02:20:58;;;;;;;38.08;25.00;;;;;;;;;;5098325;28;20076;-82
2021/08/25 02:23:24;;;;;;;39.97;27.65;;;;;;;;;;5098486;28;20052;-82
2021/08/25 02:25:51;;;;;;;37.45;25.48;;;;;;;;;;5099780;28;20175;-83
2021/08/25 02:28:17;;;;;;;42.45;29.02;;;;;;;;;;5098104;28;20463;-82
2021/08/25 02:30:44;;;;;;;37.78;24.55;;;;;;;;;;5099449;28;20146;-83
2021/08/25 02:33:10;;;;;;;46.35;28.73;;;;;;;;;;5101048;28;20135;-82
2021/08/25 02:35:37;;;;;;;43.83;31.13;;;;;;;;;;5101026;28;20063;-82
2021/08/25 02:38:08;;;;;;;55.15;37.60;;;;;;;;;;5112578;28;20044;-82
2021/08/25 02:40:34;;;;;;;52.83;37.47;;;;;;;;;;5149588;27;20036;-83
2021/08/25 02:43:01;;;;;;;54.83;38.88;;;;;;;;;;5113445;28;20048;-83
2021/08/25 02:45:27;;;;;;;55.25;35.58;;;;;;;;;;5139177;27;20066;-82
2021/08/25 02:47:54;;;;;;;48.67;34.28;;;;;;;;;;5102510;28;20113;-83
2021/08/25 02:50:20;;;;;;;43.20;31.42;;;;;;;;;;5099857;28;20126;-83
2021/08/25 02:52:47;;;;;;;41.30;30.60;;;;;;;;;;5095755;28;20056;-83
2021/08/25 02:55:13;;;;;;;46.70;33.30;;;;;;;;;;5096475;28;20079;-83
2021/08/25 02:57:40;;;;;;;42.40;29.13;;;;;;;;;;5098678;28;20369;-83
2021/08/25 03:00:07;;;;;;;44.72;30.60;;;;;;;;;;5131018;27;20196;-82
2021/08/25 03:02:34;;;;;;;42.05;29.08;;;;;;;;;;5097975;28;20443;-83
2021/08/25 03:05:01;;;;;;;51.38;33.70;;;;;;;;;;5105744;28;20064;-83
2021/08/25 03:07:27;;;;;;;56.10;37.35;;;;;;;;;;5113318;28;20085;-83
2021/08/25 03:09:54;;;;;;;52.80;36.15;;;;;;;;;;5109728;28;20267;-83
2021/08/25 03:12:23;;;;;;;56.28;36.10;;;;;;;;;;5131279;27;20059;-83
2021/08/25 03:14:50;;;;;;;52.47;35.42;;;;;;;;;;5098981;28;20477;-82
2021/08/25 03:17:16;;;;;;;55.47;37.30;;;;;;;;;;5098070;28;20052;-83
2021/08/25 03:19:43;;;;;;;53.75;36.95;;;;;;;;;;5098098;28;20075;-82
2021/08/25 03:22:09;;;;;;;55.85;38.03;;;;;;;;;;5096220;28;20294;-83
2021/08/25 03:24:36;;;;;;;65.63;40.38;;;;;;;;;;5095939;28;20151;-83
2021/08/25 03:27:02;;;;;;;55.65;37.42;;;;;;;;;;5096819;28;20048;-83
2021/08/25 03:29:29;;;;;;;62.08;39.38;;;;;;;;;;5097260;28;20295;-83
2021/08/25 03:31:55;;;;;;;71.43;44.63;;;;;;;;;;5097005;28;20044;-83
2021/08/25 03:34:25;;;;;;;82.22;51.38;;;;;;;;;;5096552;28;20211;-83
2021/08/25 03:36:52;;;;;;;98.25;56.58;;;;;;;;;;5098862;28;20044;-82
2021/08/25 03:39:18;;;;;;;95.22;57.53;;;;;;;;;;5099402;28;20399;-83
2021/08/25 03:41:54;;;;;;;106.93;60.00;;;;;;;;;;5099186;28;20059;-83
2021/08/25 03:44:20;;;;;;;125.45;60.25;;;;;;;;;;5132409;27;20051;-83
2021/08/25 03:46:47;;;;;;;95.40;58.00;;;;;;;;;;5132006;27;20388;-84
2021/08/25 03:49:29;;;;;;;113.15;58.97;;;;;;;;;;5100129;28;20079;-83
2021/08/25 03:51:55;;;;;;;96.88;53.35;;;;;;;;;;5099326;28;20386;-84
2021/08/25 03:54:22;;;;;;;79.35;49.83;;;;;;;;;;5095451;28;20062;-84
2021/08/25 03:56:49;;;;;;;76.30;48.40;;;;;;;;;;5095491;28;20055;-84
2021/08/25 03:59:15;;;;;;;74.57;45.22;;;;;;;;;;5097375;28;20048;-82
2021/08/25 04:01:42;;;;;;;69.50;44.72;;;;;;;;;;5096872;28;20044;-84
2021/08/25 04:04:09;;;;;;;59.15;42.97;;;;;;;;;;5096746;28;20063;-84
2021/08/25 04:06:36;;;;;;;57.92;39.92;;;;;;;;;;5097814;28;20252;-84
2021/08/25 04:09:06;;;;;;;54.13;38.67;;;;;;;;;;5109520;28;20063;-84
2021/08/25 04:11:33;;;;;;;56.28;39.90;;;;;;;;;;5112749;28;20089;-83
2021/08/25 04:14:00;;;;;;;54.15;38.65;;;;;;;;;;5112018;28;20052;-84
2021/08/25 04:16:27;;;;;;;45.53;35.25;;;;;;;;;;5099276;28;20062;-84
2021/08/25 04:18:54;;;;;;;56.97;37.97;;;;;;;;;;5095234;28;20101;-84
2021/08/25 04:21:23;;;;;;;53.70;35.92;;;;;;;;;;5097962;28;20057;-83
2021/08/25 04:23:52;;;;;;;54.80;37.33;;;;;;;;;;5109899;28;20057;-84
2021/08/25 04:26:22;;;;;;;53.08;36.95;;;;;;;;;;5088707;28;20044;-85
2021/08/25 04:28:57;;;;;;;56.75;37.67;;;;;;;;;;5084086;28;20052;-82
2021/08/25 04:31:24;;;;;;;61.03;39.78;;;;;;;;;;5092715;28;20052;-83
2021/08/25 04:33:53;;;;;;;53.65;37.22;;;;;;;;;;5084590;28;20063;-84
2021/08/25 04:36:20;;;;;;;65.40;36.78;;;;;;;;;;5080011;28;20107;-83
2021/08/25 04:38:47;;;;;;;58.22;38.05;;;;;;;;;;5080749;28;20075;-84
2021/08/25 04:41:13;;;;;;;55.25;38.35;;;;;;;;;;5108440;28;20044;-83
2021/08/25 04:43:40;;;;;;;66.30;40.75;;;;;;;;;;5085516;28;20056;-83
2021/08/25 04:46:14;;;;;;;67.88;40.33;;;;;;;;;;5078465;28;20078;-82
2021/08/25 04:48:40;;;;;;;67.40;40.55;;;;;;;;;;5080084;28;20080;-82
2021/08/25 04:51:11;;;;;;;61.42;36.95;;;;;;;;;;5111924;28;20049;-83
2021/08/25 04:53:38;;;;;;;61.00;37.75;;;;;;;;;;5076081;28;20060;-84
2021/08/25 04:56:05;;;;;;;63.08;38.97;;;;;;;;;;5077009;28;20109;-83
2021/08/25 04:58:32;;;;;;;70.55;38.70;;;;;;;;;;5081612;28;20052;-83
2021/08/25 05:01:06;;;;;;;64.05;37.30;;;;;;;;;;5095303;28;20086;-84
2021/08/25 05:03:35;;;;;;;63.45;38.55;;;;;;;;;;5096905;28;20191;-84
2021/08/25 05:06:09;;;;;;;118.32;37.92;;;;;;;;;;5096877;28;20163;-83
2021/08/25 05:08:36;;;;;;;56.20;34.67;;;;;;;;;;5095844;28;20056;-83
2021/08/25 05:11:03;;;;;;;53.22;32.10;;;;;;;;;;5096993;28;20076;-84
2021/08/25 05:13:30;;;;;;;45.58;30.58;;;;;;;;;;5095321;28;20044;-83
2021/08/25 05:15:57;;;;;;;46.78;30.60;;;;;;;;;;5095420;28;20052;-83
2021/08/25 05:18:24;;;;;;;49.58;28.58;;;;;;;;;;5095339;28;20052;-83
2021/08/25 05:20:50;;;;;;;45.03;28.60;;;;;;;;;;5095158;28;20520;-84
2021/08/25 05:23:16;;;;;;;42.97;27.38;;;;;;;;;;5095452;28;20453;-84
2021/08/25 05:25:46;;;;;;;38.35;26.75;;;;;;;;;;5094412;28;20047;-83
2021/08/25 05:28:13;;;;;;;38.92;27.48;;;;;;;;;;5098191;28;20086;-81
2021/08/25 05:30:42;;;;;;;39.30;27.40;;;;;;;;;;5093026;28;20044;-82
2021/08/25 05:33:09;;;;;;;35.78;24.63;;;;;;;;;;5076111;28;20056;-83
2021/08/25 05:35:36;;;;;;;34.65;24.35;;;;;;;;;;5082116;28;20427;-82
2021/08/25 05:38:02;;;;;;;36.80;24.80;;;;;;;;;;5100549;28;20052;-84
2021/08/25 05:40:32;;;;;;;39.88;25.98;;;;;;;;;;5107114;28;20048;-84
2021/08/25 05:42:59;;;;;;;36.90;24.55;;;;;;;;;;5143098;27;20047;-81
2021/08/25 05:45:26;;;;;;;28.88;19.90;;;;;;;;;;5108785;28;20036;-83
2021/08/25 05:47:56;;;;;;;29.95;18.92;;;;;;;;;;5108717;28;20074;-82
2021/08/25 05:50:26;;;;;;;30.63;18.23;;;;;;;;;;5106327;28;20146;-83
2021/08/25 05:52:53;;;;;;;25.38;16.83;;;;;;;;;;5104538;28;20032;-83
2021/08/25 05:55:20;;;;;;;33.20;18.75;;;;;;;;;;5109942;28;20124;-83
2021/08/25 05:57:49;;;;;;;26.45;15.55;;;;;;;;;;5098092;28;20242;-83
2021/08/25 06:00:17;;;;;;;33.22;13.68;;;;;;;;;;5086885;28;20354;-82
2021/08/25 06:02:49;;;;;;;21.08;13.80;;;;;;;;;;5094902;28;20215;-84
2021/08/25 06:05:17;;;;;;;20.55;14.25;;;;;;;;;;5092644;28;20214;-83
2021/08/25 06:07:44;;;;;;;23.23;12.60;;;;;;;;;;5050803;28;1220141;-83
2021/08/25 06:10:10;;;;;;;22.90;12.57;;;;;;;;;;5095181;28;20216;-84
2021/08/25 06:12:39;;;;;;;16.45;11.20;;;;;;;;;;5092686;28;20090;-83
2021/08/25 06:15:06;;;;;;;15.43;11.02;;;;;;;;;;5099627;28;20055;-83
2021/08/25 06:17:33;;;;;;;11.55;10.10;;;;;;;;;;5096014;28;20150;-84
2021/08/25 06:20:00;;;;;;;10.98;9.45;;;;;;;;;;5096251;28;20064;-83
2021/08/25 06:22:26;;;;;;;12.50;8.82;;;;;;;;;;5100334;28;20100;-83
2021/08/25 06:24:53;;;;;;;10.43;8.93;;;;;;;;;;5096799;28;20048;-82
2021/08/25 06:27:24;;;;;;;12.57;9.27;;;;;;;;;;5129954;27;20562;-83
2021/08/25 06:29:50;;;;;;;12.60;9.77;;;;;;;;;;5104516;28;20064;-83
2021/08/25 06:32:16;;;;;;;14.93;9.13;;;;;;;;;;5095535;28;20055;-83
2021/08/25 06:34:46;;;;;;;11.48;8.88;;;;;;;;;;5085287;28;20052;-83
2021/08/25 06:37:13;;;;;;;9.93;8.27;;;;;;;;;;5091045;28;20050;-83
2021/08/25 06:39:39;;;;;;;17.40;8.98;;;;;;;;;;5103791;28;20093;-84
2021/08/25 06:42:06;;;;;;;11.10;8.20;;;;;;;;;;5096900;28;20328;-84
2021/08/25 06:44:33;;;;;;;13.82;8.10;;;;;;;;;;5095842;28;20067;-83
2021/08/25 06:47:00;;;;;;;11.10;7.72;;;;;;;;;;5097298;28;20097;-83
2021/08/25 06:49:27;;;;;;;9.32;7.65;;;;;;;;;;5091557;28;20178;-83
2021/08/25 06:51:53;;;;;;;12.55;7.65;;;;;;;;;;5076226;28;20329;-83
2021/08/25 06:54:23;;;;;;;8.70;7.00;;;;;;;;;;5072625;28;20256;-84
2021/08/25 06:56:54;;;;;;;9.98;7.30;;;;;;;;;;5072685;28;20098;-83
2021/08/25 06:59:20;;;;;;;13.25;7.13;;;;;;;;;;5081813;28;20063;-83
2021/08/25 07:01:47;;;;;;;9.93;7.68;;;;;;;;;;5101628;28;20069;-83
2021/08/25 07:04:14;;;;;;;9.90;8.18;;;;;;;;;;5105817;28;20047;-83
2021/08/25 07:06:41;;;;;;;8.82;6.95;;;;;;;;;;5091753;28;20142;-83
2021/08/25 07:09:07;;;;;;;8.35;6.65;;;;;;;;;;5093233;28;20364;-82
2021/08/25 07:11:35;;;;;;;10.88;5.78;;;;;;;;;;5094296;28;20040;-83
2021/08/25 07:14:02;;;;;;;9.75;6.43;;;;;;;;;;5087694;28;20040;-84
2021/08/25 07:16:34;;;;;;;11.25;5.57;;;;;;;;;;5089841;28;20062;-84
2021/08/25 07:19:06;;;;;;;9.10;5.45;;;;;;;;;;5087266;28;20082;-84
2021/08/25 07:21:33;;;;;;;11.55;5.15;;;;;;;;;;5074314;28;20052;-84
2021/08/25 07:24:00;;;;;;;6.13;4.18;;;;;;;;;;5085642;28;20129;-84
2021/08/25 07:26:30;;;;;;;6.93;4.70;;;;;;;;;;5092885;28;20044;-83
2021/08/25 07:28:59;;;;;;;6.63;4.05;;;;;;;;;;5094653;28;20071;-83
2021/08/25 07:31:26;;;;;;;7.13;3.80;;;;;;;;;;5094459;28;20058;-83
2021/08/25 07:33:54;;;;;;;5.97;4.15;;;;;;;;;;5086419;28;20140;-84
2021/08/25 07:36:20;;;;;;;6.75;3.40;;;;;;;;;;5085601;28;20041;-83
2021/08/25 07:38:47;;;;;;;7.00;3.28;;;;;;;;;;5096519;28;20033;-82
2021/08/25 07:41:14;;;;;;;6.03;3.00;;;;;;;;;;5098014;28;20044;-82
2021/08/25 07:43:43;;;;;;;9.32;2.90;;;;;;;;;;5106124;28;20048;-83
2021/08/25 07:46:12;;;;;;;6.30;2.80;;;;;;;;;;5106069;28;20051;-84
2021/08/25 07:48:43;;;;;;;6.13;2.47;;;;;;;;;;5100793;28;20376;-84
2021/08/25 07:51:10;;;;;;;6.07;2.63;;;;;;;;;;5106079;28;20078;-83
2021/08/25 07:53:38;;;;;;;7.10;3.33;;;;;;;;;;5106109;28;20040;-85
2021/08/25 07:56:08;;;;;;;5.32;3.13;;;;;;;;;;5094379;28;20039;-83
2021/08/25 07:58:35;;;;;;;5.70;2.50;;;;;;;;;;5092239;28;20373;-84
2021/08/25 08:01:09;;;;;;;7.05;2.50;;;;;;;;;;5091820;28;20436;-84
2021/08/25 08:03:36;;;;;;;6.60;2.85;;;;;;;;;;5094231;28;20475;-85
2021/08/25 08:06:04;;;;;;;5.32;2.53;;;;;;;;;;5095544;28;20048;-85
2021/08/25 08:08:31;;;;;;;5.88;2.17;;;;;;;;;;5091572;28;20067;-84
2021/08/25 08:10:59;;;;;;;3.13;2.00;;;;;;;;;;5077555;28;20106;-86
2021/08/25 08:13:27;;;;;;;6.32;1.90;;;;;;;;;;5076163;28;20056;-86
2021/08/25 08:15:54;;;;;;;4.95;2.17;;;;;;;;;;5072414;28;20060;-83
2021/08/25 08:18:36;;;;;;;4.90;1.83;;;;;;;;;;5089498;28;20044;-84
2021/08/25 08:21:03;;;;;;;5.30;1.70;;;;;;;;;;5091967;28;20317;-84
2021/08/25 08:23:30;;;;;;;5.38;2.08;;;;;;;;;;5090826;28;20436;-84
2021/08/25 08:25:57;;;;;;;4.38;1.90;;;;;;;;;;5090798;28;20040;-83
2021/08/25 08:28:24;;;;;;;4.32;1.85;;;;;;;;;;5091331;28;20052;-84
2021/08/25 08:30:54;;;;;;;5.75;2.17;;;;;;;;;;5093669;28;20044;-84
2021/08/25 08:33:21;;;;;;;7.28;1.85;;;;;;;;;;5092388;28;20040;-84
2021/08/25 08:35:48;;;;;;;6.07;1.98;;;;;;;;;;5095042;28;20092;-84
2021/08/25 08:38:15;;;;;;;6.60;1.50;;;;;;;;;;5094623;28;20078;-84
2021/08/25 08:40:43;;;;;;;4.28;1.45;;;;;;;;;;5091725;28;20044;-84
2021/08/25 08:43:11;;;;;;;5.50;1.42;;;;;;;;;;5096600;28;20095;-86
2021/08/25 08:45:39;;;;;;;3.25;1.70;;;;;;;;;;5113533;28;20040;-87
2021/08/25 08:48:22;;;;;;;3.10;1.73;;;;;;;;;;5112480;28;20036;-87
2021/08/25 08:50:48;;;;;;;3.33;1.50;;;;;;;;;;5080754;28;20040;-87
2021/08/25 08:53:17;;;;;;;3.38;1.35;;;;;;;;;;5074531;28;20072;-87
2021/08/25 08:55:59;;;;;;;6.80;1.73;;;;;;;;;;5075919;28;20049;-86
2021/08/25 08:58:25;;;;;;;7.35;2.00;;;;;;;;;;5082408;28;20204;-86
2021/08/25 09:00:51;;;;;;;5.32;1.48;;;;;;;;;;5086244;28;20049;-86
2021/08/25 09:03:22;;;;;;;4.60;1.25;;;;;;;;;;5091528;28;20042;-86
2021/08/25 09:06:08;;;;;;;4.53;1.20;;;;;;;;;;5104731;28;20139;-87
2021/08/25 09:08:36;;;;;;;6.00;1.50;;;;;;;;;;5108470;28;20052;-88
2021/08/25 09:11:04;;;;;;;3.67;1.60;;;;;;;;;;5108967;28;20047;-86
2021/08/25 09:13:34;;;;;;;4.22;1.45;;;;;;;;;;5103091;28;20173;-85
2021/08/25 09:16:07;;;;;;;6.00;1.33;;;;;;;;;;5096246;28;20048;-88
2021/08/25 09:18:34;;;;;;;4.93;1.75;;;;;;;;;;5092269;28;20291;-86
2021/08/25 09:21:01;;;;;;;2.63;1.08;;;;;;;;;;5098697;28;20086;-86
2021/08/25 09:23:30;;;;;;;2.47;1.00;;;;;;;;;;5097352;28;20048;-88
2021/08/25 09:26:06;;;;;;;3.88;1.20;;;;;;;;;;5100382;28;20047;-86
2021/08/25 09:28:32;;;;;;;;;;;;;;;;;;5103637;28;20032;-87
2021/08/25 09:30:59;;;;;;;1.80;0.98;;;;;;;;;;5099460;28;19955;-87
2021/08/25 09:33:37;;;;;;;2.40;0.70;;;;;;;;;;5097209;28;20046;-86
2021/08/25 09:36:05;;;;;;;2.85;1.17;;;;;;;;;;5105310;28;20041;-85
2021/08/25 09:38:32;;;;;;;2.22;0.90;;;;;;;;;;5106634;28;20080;-86
2021/08/25 09:41:09;;;;;;;3.42;1.10;;;;;;;;;;5095892;28;20324;-88
2021/08/25 09:43:49;;;;;;;2.97;1.15;;;;;;;;;;5097340;28;20043;-86
2021/08/25 09:46:23;;;;;;;3.28;1.00;;;;;;;;;;5092715;28;20056;-86
2021/08/25 09:48:57;;;;;;;3.85;1.30;;;;;;;;;;5093415;28;20047;-85
2021/08/25 09:51:36;;;;;;;4.25;0.90;;;;;;;;;;5093539;28;20532;-86
2021/08/25 09:54:04;;;;;;;5.00;0.93;;;;;;;;;;5092282;28;20113;-86
2021/08/25 09:56:33;;;;;;;1.70;0.82;;;;;;;;;;5091598;28;20080;-87
2021/08/25 09:59:01;;;;;;;3.50;0.80;;;;;;;;;;5074936;28;20054;-86
2021/08/25 10:01:28;;;;;;;2.45;0.70;;;;;;;;;;5094233;28;20071;-86
2021/08/25 10:03:58;;;;;;;6.30;1.10;;;;;;;;;;5098706;28;20090;-87
2021/08/25 10:06:26;;;;;;;1.98;0.80;;;;;;;;;;5096481;28;20048;-86
2021/08/25 10:08:53;;;;;;;3.95;0.85;;;;;;;;;;5097794;28;20622;-87
2021/08/25 10:11:22;;;;;;;2.22;0.98;;;;;;;;;;5097086;28;20332;-87
2021/08/25 10:13:52;;;;;;;1.05;0.60;;;;;;;;;;5096139;28;20051;-87
2021/08/25 10:16:38;;;;;;;3.72;0.75;;;;;;;;;;5094626;28;20037;-87
2021/08/25 10:19:36;;;;;;;2.80;0.70;;;;;;;;;;5090078;28;20060;-88
2021/08/25 10:22:06;;;;;;;1.30;0.70;;;;;;;;;;5088025;28;20378;-87
2021/08/25 10:24:48;;;;;;;5.20;1.00;;;;;;;;;;5102012;28;20094;-87
2021/08/25 10:27:15;;;;;;;3.72;0.60;;;;;;;;;;5098435;28;20117;-87
2021/08/25 10:30:03;;;;;;;4.53;0.88;;;;;;;;;;5088437;28;20075;-87
2021/08/25 10:32:37;;;;;;;2.90;0.60;;;;;;;;;;5095412;28;20040;-87
2021/08/25 10:35:27;;;;;;;1.85;0.60;;;;;;;;;;5087253;28;20304;-90
2021/08/25 10:38:16;;;;;;;3.45;0.60;;;;;;;;;;5098786;28;20103;-89
2021/08/25 10:40:42;;;;;;;2.78;0.95;;;;;;;;;;5100849;28;20054;-87
2021/08/25 10:43:28;;;;;;;2.30;0.50;;;;;;;;;;5127038;27;20078;-87
2021/08/25 10:45:57;;;;;;;1.75;0.65;;;;;;;;;;5107744;28;20058;-89
2021/08/25 10:48:35;;;;;;;3.22;0.80;;;;;;;;;;5100661;28;20059;-86
2021/08/25 10:51:02;;;;;;;2.60;0.63;;;;;;;;;;5097689;28;20382;-85
2021/08/25 10:53:31;;;;;;;3.55;0.80;;;;;;;;;;5104573;28;20047;-87
2021/08/25 10:56:26;;;;;;;1.13;0.52;;;;;;;;;;5107538;28;20060;-88
2021/08/25 10:58:58;;;;;;;1.08;0.60;;;;;;;;;;5089118;28;20436;-87
2021/08/25 11:01:28;;;;;;;2.30;0.68;;;;;;;;;;5074061;28;20057;-87
2021/08/25 11:03:57;;;;;;;4.10;0.82;;;;;;;;;;5072258;28;20091;-87
2021/08/25 11:06:28;;;;;;;2.38;0.50;;;;;;;;;;5076721;28;20052;-86
2021/08/25 11:09:08;;;;;;;1.92;0.68;;;;;;;;;;5071854;28;20057;-87
2021/08/25 11:11:35;;;;;;;4.20;0.60;;;;;;;;;;5075017;28;20056;-86
2021/08/25 11:14:02;;;;;;;1.27;0.63;;;;;;;;;;5072342;28;20048;-85
2021/08/25 11:16:28;;;;;;;1.23;0.50;;;;;;;;;;5076500;28;20138;-87
2021/08/25 11:18:58;;;;;;;1.73;0.63;;;;;;;;;;5078550;28;20049;-88
2021/08/25 11:21:25;;;;;;;1.27;0.55;;;;;;;;;;5080116;28;20218;-87
2021/08/25 11:23:56;;;;;;;2.03;0.55;;;;;;;;;;5085702;28;20131;-88
2021/08/25 11:26:23;;;;;;;3.53;0.70;;;;;;;;;;5090443;28;20066;-87
2021/08/25 11:29:04;;;;;;;2.78;0.80;;;;;;;;;;5101658;28;20109;-87
2021/08/25 11:31:31;;;;;;;4.95;0.70;;;;;;;;;;5091887;28;20044;-87
2021/08/25 11:33:58;;;;;;;8.60;0.90;;;;;;;;;;5113376;28;20059;-88
2021/08/25 11:36:34;;;;;;;4.03;0.90;;;;;;;;;;5114343;28;20051;-87
2021/08/25 11:39:11;;;;;;;2.70;0.60;;;;;;;;;;5112742;28;20071;-87
2021/08/25 11:41:44;;;;;;;4.90;0.80;;;;;;;;;;5113463;28;20257;-89
2021/08/25 11:44:11;;;;;;;0.80;0.47;;;;;;;;;;5094133;28;20070;-87
2021/08/25 11:46:37;;;;;;;2.03;0.32;;;;;;;;;;5106178;28;20040;-87
2021/08/25 11:49:06;;;;;;;1.45;0.50;;;;;;;;;;5099420;28;20071;-87
2021/08/25 11:51:34;;;;;;;3.55;0.52;;;;;;;;;;5107526;28;20036;-87
2021/08/25 11:54:00;;;;;;;1.77;0.77;;;;;;;;;;5115800;28;20283;-86
2021/08/25 11:56:27;;;;;;;3.10;0.70;;;;;;;;;;5096436;28;20291;-86
2021/08/25 11:59:09;;;;;;;2.22;1.27;;;;;;;;;;5095109;28;20072;-86
2021/08/25 12:01:35;;;;;;;2.65;0.55;;;;;;;;;;5093718;28;20044;-87
2021/08/25 12:04:02;;;;;;;2.17;0.70;;;;;;;;;;5105768;28;20035;-86
2021/08/25 12:06:44;;;;;;;1.42;0.38;;;;;;;;;;5108081;28;20039;-87
2021/08/25 12:09:11;;;;;;;2.28;0.60;;;;;;;;;;5107311;28;20044;-88
2021/08/25 12:11:53;;;;;;;3.33;0.70;;;;;;;;;;5137204;27;20436;-86
2021/08/25 12:14:47;;;;;;;1.95;0.52;;;;;;;;;;5096578;28;20087;-86
2021/08/25 12:17:13;;;;;;;1.15;0.20;;;;;;;;;;5093128;28;20055;-87
2021/08/25 12:19:40;;;;;;;2.25;0.70;;;;;;;;;;5094482;28;20047;-87
2021/08/25 12:22:22;;;;;;;2.28;0.40;;;;;;;;;;5097747;28;20055;-86
2021/08/25 12:24:52;;;;;;;2.47;0.47;;;;;;;;;;5096203;28;20071;-86
2021/08/25 12:27:19;;;;;;;3.13;0.60;;;;;;;;;;5104555;28;20113;-86
2021/08/25 12:29:46;;;;;;;3.78;0.52;;;;;;;;;;5111393;28;20061;-87
2021/08/25 12:32:39;;;;;;;2.33;0.73;;;;;;;;;;5124211;28;20044;-88
2021/08/25 12:35:09;;;;;;;3.10;0.50;;;;;;;;;;5117163;28;20055;-87
2021/08/25 12:41:05;;;;;;;1.45;0.32;;;;;;;;;;5090812;28;20088;-87
2021/08/25 12:43:31;;;;;;;0.95;0.35;;;;;;;;;;5095271;28;20040;-86
2021/08/25 12:45:58;;;;;;;2.10;0.55;;;;;;;;;;5095039;28;20131;-87
2021/08/25 12:48:25;;;;;;;4.57;0.50;;;;;;;;;;5103422;28;20094;-88
2021/08/25 12:50:51;;;;;;;1.70;0.30;;;;;;;;;;5094018;28;20477;-88
2021/08/25 12:53:18;;;;;;;0.80;0.30;;;;;;;;;;5093296;28;20052;-88
2021/08/25 12:55:45;;;;;;;0.93;0.50;;;;;;;;;;5080601;28;20056;-88
2021/08/25 12:58:11;;;;;;;0.80;0.40;;;;;;;;;;5098268;28;20497;-88
2021/08/25 13:00:38;;;;;;;1.33;0.50;;;;;;;;;;5093206;28;20051;-88
2021/08/25 13:03:06;;;;;;;1.40;0.50;;;;;;;;;;5078774;28;20165;-88
2021/08/25 13:05:33;;;;;;;3.55;0.60;;;;;;;;;;5080902;28;20087;-88
2021/08/25 13:08:00;;;;;;;4.32;0.30;;;;;;;;;;5076532;28;20292;-88
2021/08/25 13:10:28;;;;;;;3.78;0.40;;;;;;;;;;5078682;28;20049;-87
2021/08/25 13:12:55;;;;;;;4.10;0.60;;;;;;;;;;5083068;28;20032;-87
2021/08/25 13:15:21;;;;;;;2.35;0.60;;;;;;;;;;5091100;28;20052;-87
2021/08/25 13:17:48;;;;;;;1.60;0.40;;;;;;;;;;5091007;28;20033;-87
2021/08/25 13:20:15;;;;;;;3.50;0.70;;;;;;;;;;5081696;28;20044;-87
2021/08/25 13:22:42;;;;;;;1.80;0.50;;;;;;;;;;5119746;28;20097;-88
2021/08/25 13:25:15;;;;;;;1.80;0.50;;;;;;;;;;5124110;28;20061;-88
2021/08/25 13:27:42;;;;;;;1.55;0.40;;;;;;;;;;5109895;28;20135;-88
2021/08/25 13:30:08;;;;;;;1.88;0.55;;;;;;;;;;5105357;28;20071;-86
2021/08/25 13:32:41;;;;;;;0.45;0.28;;;;;;;;;;5095392;28;20245;-87
2021/08/25 13:35:08;;;;;;;2.58;0.65;;;;;;;;;;5094513;28;20089;-87
2021/08/25 13:37:34;;;;;;;0.80;0.30;;;;;;;;;;5088408;28;20303;-87
2021/08/25 13:40:07;;;;;;;1.65;0.38;;;;;;;;;;5084066;28;20044;-87
2021/08/25 13:42:34;;;;;;;1.17;0.60;;;;;;;;;;5093419;28;20047;-88
2021/08/25 13:45:03;;;;;;;2.75;0.68;;;;;;;;;;5092837;28;20196;-88
2021/08/25 13:47:32;;;;;;;2.70;0.50;;;;;;;;;;5111894;28;20123;-88
2021/08/25 13:49:59;;;;;;;3.10;0.70;;;;;;;;;;5107717;28;20036;-88
2021/08/25 13:52:25;;;;;;;2.67;0.82;;;;;;;;;;5089982;28;20516;-86
2021/08/25 13:54:52;;;;;;;3.55;0.70;;;;;;;;;;5079740;28;20105;-87
2021/08/25 13:57:18;;;;;;;3.92;1.02;;;;;;;;;;5082398;28;20131;-89
2021/08/25 13:59:45;;;;;;;2.55;0.60;;;;;;;;;;5103452;28;20047;-87
2021/08/25 14:02:11;;;;;;;1.75;0.70;;;;;;;;;;5094541;28;20109;-89
2021/08/25 14:04:41;;;;;;;4.72;1.02;;;;;;;;;;5096753;28;20293;-87
2021/08/25 14:07:08;;;;;;;2.88;0.60;;;;;;;;;;5088589;28;20048;-88
2021/08/25 14:09:34;;;;;;;3.40;0.82;;;;;;;;;;5073249;28;20091;-88
2021/08/25 14:12:01;;;;;;;4.13;0.90;;;;;;;;;;5087507;28;20103;-89
2021/08/25 14:14:28;;;;;;;5.75;0.65;;;;;;;;;;5093518;28;20059;-88
2021/08/25 14:16:55;;;;;;;0.90;0.60;;;;;;;;;;5106576;28;20077;-87
2021/08/25 14:19:21;;;;;;;3.55;0.75;;;;;;;;;;5100668;28;20135;-87
2021/08/25 14:21:47;;;;;;;1.10;0.57;;;;;;;;;;5103498;28;20056;-86
2021/08/25 14:24:14;;;;;;;2.67;0.77;;;;;;;;;;5094198;28;20079;-87
2021/08/25 14:26:41;;;;;;;6.03;0.65;;;;;;;;;;5089874;28;20048;-87
2021/08/25 14:29:07;;;;;;;4.70;0.65;;;;;;;;;;5095206;28;20056;-88
2021/08/25 14:31:34;;;;;;;2.22;0.77;;;;;;;;;;5092474;28;20055;-87
2021/08/25 14:34:01;;;;;;;3.60;0.77;;;;;;;;;;5092448;28;20052;-87
2021/08/25 14:36:32;;;;;;;3.33;0.80;;;;;;;;;;5094813;28;20070;-88
2021/08/25 14:38:58;;;;;;;1.33;0.60;;;;;;;;;;5095674;28;20047;-87
2021/08/25 14:41:25;;;;;;;1.85;0.52;;;;;;;;;;5093210;28;20048;-87
2021/08/25 14:43:52;;;;;;;5.35;0.77;;;;;;;;;;5095949;28;20062;-84
2021/08/25 14:46:18;;;;;;;1.70;0.60;;;;;;;;;;5107235;28;20054;-88